Flight Track Log - Related Links

Times and Time Zones

All times are in EDT time to prevent confusion due to time zone crossing. See the SWA3206 flight status page for this flight to view local times or setup timezone preferences in your user account.

Time Position Orientation Groundspeed Altitude Reporting Facility
EDT Latitude Longitude Course Direction KTS MPH feet Rate Location/Type
Mon 11:36:28 AM 39.8667 -75.2667 247° West 145 167 1,100  Level Philadelphia TRACON
Mon 11:37:16 AM 39.8500 -75.3167 247° West 188 216 2,400 2,412 Climbing Philadelphia TRACON
Mon 11:38:10 AM 39.8500 -75.3667 270° West 214 246 5,200 3,000 Climbing Philadelphia TRACON
Mon 11:39:10 AM 39.9000 -75.4167 323° Northwest 263 303 8,100 2,800 Climbing Philadelphia TRACON
Mon 11:40:10 AM 39.9667 -75.4500 339° North 296 341 10,800 1,793 Climbing Philadelphia TRACON
Mon 11:41:54 AM 40.1242 -75.5214 341° North 364 419 13,000 1,345 Climbing New York Center
Mon 11:42:55 AM 40.2122 -75.5600 341° North 362 417 14,500 1,918 Climbing New York Center
Mon 11:43:56 AM 40.2814 -75.6492 315° West 348 400 16,900 2,085 Climbing New York Center
Mon 11:44:53 AM 40.3522 -75.7550 311° West 353 406 18,600 1,916 Climbing New York Center
Mon 11:45:55 AM 40.4150 -75.8442 313° West 359 413 20,700 2,350 Climbing New York Center
Mon 11:46:53 AM 40.4514 -75.9694 291° West 364 419 23,300 2,622 Climbing New York Center
Mon 11:47:54 AM 40.4706 -76.0992 281° West 359 413 25,900 2,311 Climbing New York Center
Mon 11:48:55 AM 40.4917 -76.2319 282° West 366 421 28,000 1,587 Climbing New York Center
Mon 11:49:55 AM 40.5125 -76.3619 282° West 371 427 29,100 1,271 Climbing New York Center
Mon 11:50:53 AM 40.5331 -76.4972 281° West 376 433 30,500 966 Climbing New York Center
Mon 11:51:53 AM 40.5617 -76.6392 285° West 382 440 31,000 248 Climbing New York Center
Mon 11:52:54 AM 40.6003 -76.7844 289° West 404 465 31,000  Level New York Center
Mon 11:53:54 AM 40.6386 -76.9275 289° West 418 481 31,000 793 Level New York Center
Mon 11:54:55 AM 40.6769 -77.0706 290° West 423 487 32,600 1,388 Climbing New York Center
Mon 11:55:55 AM 40.7169 -77.2192 290° West 423 487 33,800 1,291 Climbing New York Center
Mon 11:57:33 AM 40.7814 -77.4706 289° West 444 511 36,000 835 Climbing Cleveland Center
Mon 11:58:33 AM 40.8186 -77.6144 289° West 430 495 36,000  Level Cleveland Center
Mon 11:59:33 AM 40.8558 -77.7608 289° West 430 495 36,000  Level Cleveland Center
Mon 12:00:33 PM 40.8972 -77.9239 289° West 425 489 36,000  Level Cleveland Center
Mon 12:01:33 PM 40.9233 -78.0686 283° West 414 476 36,000  Level Cleveland Center
Mon 12:02:33 PM 40.9433 -78.2192 280° West 414 476 36,000  Level Cleveland Center
Mon 12:03:33 PM 40.9631 -78.3669 280° West 414 476 36,000  Level Cleveland Center
Mon 12:04:33 PM 40.9825 -78.5147 280° West 414 476 36,000  Level Cleveland Center
Mon 12:05:33 PM 40.9994 -78.6628 279° West 414 476 36,000  Level Cleveland Center
Mon 12:06:33 PM 41.0167 -78.8136 279° West 409 471 36,000  Level Cleveland Center
Mon 12:07:33 PM 41.0333 -78.9617 279° West 409 471 36,000  Level Cleveland Center
Mon 12:08:33 PM 41.0522 -79.1128 279° West 409 471 36,000  Level Cleveland Center
Mon 12:09:33 PM 41.0686 -79.2639 278° West 409 471 36,000  Level Cleveland Center
Mon 12:10:33 PM 41.0847 -79.4178 278° West 414 476 36,000  Level Cleveland Center
Mon 12:11:33 PM 41.1028 -79.5692 279° West 414 476 36,000  Level Cleveland Center
Mon 12:12:33 PM 41.1186 -79.7178 278° West 414 476 36,000  Level Cleveland Center
Mon 12:13:33 PM 41.1322 -79.8608 277° West 423 487 36,000  Level Cleveland Center
Mon 12:14:33 PM 41.1519 -80.0122 280° West 423 487 36,000  Level Cleveland Center
Mon 12:15:33 PM 41.1672 -80.1667 278° West 423 487 36,000  Level Cleveland Center
Mon 12:16:33 PM 41.1822 -80.3183 278° West 423 487 36,000  Level Cleveland Center
Mon 12:17:33 PM 41.1992 -80.4756 278° West 423 487 36,000  Level Cleveland Center
Mon 12:18:33 PM 41.2136 -80.6272 277° West 423 487 36,000  Level Cleveland Center
Mon 12:19:33 PM 41.2303 -80.7958 278° West 428 493 36,000  Level Cleveland Center
Mon 12:20:33 PM 41.2444 -80.9506 277° West 422 486 36,000  Level Cleveland Center
Mon 12:21:33 PM 41.2606 -81.1053 278° West 427 491 36,000  Level Cleveland Center
Mon 12:22:33 PM 41.2742 -81.2572 277° West 422 486 36,000  Level Cleveland Center
Mon 12:23:33 PM 41.2858 -81.3844 277° West 427 491 36,000  Level Cleveland Center
Mon 12:24:33 PM 41.3056 -81.5506 279° West 427 491 36,000  Level Cleveland Center
Mon 12:25:33 PM 41.3186 -81.7083 276° West 427 491 36,000  Level Cleveland Center
Mon 12:26:33 PM 41.3317 -81.8633 276° West 427 491 36,000  Level Cleveland Center
Mon 12:27:33 PM 41.3464 -82.0158 277° West 427 491 36,000  Level Cleveland Center
Mon 12:28:33 PM 41.3586 -82.1958 275° West 427 491 36,000  Level Cleveland Center
Mon 12:29:33 PM 41.3689 -82.3539 275° West 433 498 36,000  Level Cleveland Center
Mon 12:30:33 PM 41.3767 -82.5092 274° West 438 504 36,000  Level Cleveland Center
Mon 12:31:33 PM 41.3864 -82.6728 275° West 438 504 36,000  Level Cleveland Center
Mon 12:32:33 PM 41.3939 -82.8306 274° West 445 512 36,000  Level Cleveland Center
Mon 12:33:33 PM 41.4031 -82.9889 274° West 438 504 36,000  Level Cleveland Center
Mon 12:34:33 PM 41.4122 -83.1469 274° West 438 504 36,000  Level Cleveland Center
Mon 12:35:33 PM 41.4189 -83.3022 273° West 433 498 36,000  Level Cleveland Center
Mon 12:36:33 PM 41.4256 -83.4578 273° West 433 498 36,000  Level Cleveland Center
Mon 12:37:33 PM 41.4342 -83.6133 274° West 428 493 36,000  Level Cleveland Center
Mon 12:38:33 PM 41.4408 -83.7494 274° West 423 487 36,000  Level Cleveland Center
Mon 12:39:33 PM 41.4469 -83.9047 273° West 423 487 36,000  Level Cleveland Center
Mon 12:40:33 PM 41.4528 -84.0603 273° West 423 487 36,000  Level Cleveland Center
Mon 12:41:33 PM 41.4625 -84.2161 275° West 423 487 36,000 -1,450 Level Cleveland Center
Mon 12:42:33 PM 41.4717 -84.3828 274° West 423 487 33,100 -2,222 Descending Cleveland Center
Mon 12:44:15 PM 41.4783 -84.6128 272° West 397 457 30,000 -1,134 Descending Chicago Center
Mon 12:45:17 PM 41.4850 -84.7636 273° West 406 467 30,000  Level Chicago Center
Mon 12:46:20 PM 41.4919 -84.9517 273° West 422 486 30,000 -48 Level Chicago Center
Mon 12:47:22 PM 41.4969 -85.1086 272° West 421 484 29,900 -1,210 Descending Chicago Center
Mon 12:48:24 PM 41.5025 -85.2667 273° West 424 488 27,500 -2,468 Descending Chicago Center
Mon 12:49:26 PM 41.5069 -85.4189 272° West 412 474 24,800 -1,935 Descending Chicago Center
Mon 12:50:28 PM 41.5117 -85.5667 272° West 391 450 23,500 -1,113 Descending Chicago Center
Mon 12:51:30 PM 41.5156 -85.7139 272° West 393 452 22,500 -1,065 Descending Chicago Center
Mon 12:52:32 PM 41.5203 -85.8603 273° West 391 450 21,300 -1,645 Descending Chicago Center
Mon 12:53:34 PM 41.5239 -86.0036 272° West 389 448 19,100 -2,613 Descending Chicago Center
Mon 12:54:36 PM 41.5244 -86.1692 270° West 373 429 15,900 -3,000 Descending Chicago Center
Mon 12:55:38 PM 41.5228 -86.3047 269° West 367 422 12,900 -2,371 Descending Chicago Center
Mon 12:56:40 PM 41.5219 -86.4367 270° West 357 411 11,000 -1,210 Descending Chicago Center
Mon 12:57:42 PM 41.5206 -86.5592 269° West 333 383 10,400 -484 Descending Chicago Center
Mon 12:58:44 PM 41.5200 -86.6814 270° West 329 379 10,000 -192 Descending Chicago Center
Mon 12:59:47 PM 41.5197 -86.8125 270° West 324 373 10,000 -432 Level Chicago Center
Mon 01:00:49 PM 41.5189 -86.9108 269° West 267 307 9,100 -1,065 Descending Chicago Center
Mon 01:01:51 PM 41.5169 -87.0061 268° West 258 297 7,800 -1,452 Descending Chicago Center
Mon 01:02:53 PM 41.5200 -87.1186 272° West 254 292 6,100 -1,241 Descending Chicago Center
Mon 01:03:18 PM 41.5333 -87.1500 300° West 249 287 6,000 -532 Descending Chicago TRACON
Mon 01:04:12 PM 41.5500 -87.2333 285° West 252 290 5,400 -800 Descending Chicago TRACON
Mon 01:05:18 PM 41.5833 -87.3333 294° West 253 291 4,400 -667 Descending Chicago TRACON
Mon 01:06:18 PM 41.6167 -87.4167 298° West 255 293 4,000 -233 Descending Chicago TRACON
Mon 01:07:01 PM 41.6275 -87.4611 288° West 254 292 4,000  Level Chicago Center
Mon 01:08:03 PM 41.6567 -87.5608 291° West 249 287 4,000  Level Chicago Center
Mon 01:09:05 PM 41.6914 -87.6200 308° West 230 265 4,000 -532 Level Chicago Center
Mon 01:10:07 PM 41.7256 -87.6694 313° West 203 234 2,900 -1,065 Descending Chicago Center
Mon 01:11:09 PM 41.7525 -87.7067 314° West 172 198 1,800 -912 Descending Chicago Center
Mon 01:12:12 PM 41.7803 -87.7450 314° West 154 177 1,000 -762 Descending Chicago Center
Mon 01:14:00 PM 41.7833 -87.7500 334° Northwest  Level FlightAware Approximate

Login

Don't have an account? Register now (free) for customized features, flight alerts, and more!